الصفحة الرئيسية
METAR-TAF:

METAR-TAF

مطار :

مطار بينيتو خواريز الدولي

مدينة مكسيكو, المكسيك

دائرة عرض: 19-26N, خط طول: 099-06W, ارتفاع: 2238 متر

مراقبة الطقس الحالي

تاريخ ووقت الإصدار 23 دقيقة قبل الساعة 13:43UTC
ريح 6 عقدة من الشرق
درجة الحرارة 8°درجة مئوية
الرطوبة 76%
ضغط 1030 hPa
الرؤية: 6.4 كم
غيوم متفرقة على ارتفاع 25000 قدم

METAR: MMMX 121343Z 08006KT 4SM SCT250 08/04 A3042 NOSIG RMK 8/004 HZY

زمن: 08:06 (14:06 UTC)

توقعات

تاريخ ووقت الإصدار 2ساعات و 24 دقيقة قبل الساعة 11:42UTC
التوقعات صالحة من12 الساعة 12 UTC إلى 13 الساعة 18 UTC
ريح 5 عقدة من الشمال/الشمال الشرقي
الرؤية: 6.4 كم
غيوم مفككة على ارتفاع 25000 قدم
العجاج
من 12 الساعة 1900 UTC
ريح 15 عقدة من الجنوب الغربي
الرؤية: 10 كم
غيوم مفككة على ارتفاع 25000 قدم
من 13 الساعة 0200 UTC
ريح 8 عقدة من الجنوب الغربي
الرؤية: 10 كم
غيوم مفككة على ارتفاع 25000 قدم
من 13 الساعة 1600 UTC
ريح 10 عقدة من الجنوب الغربي
الرؤية: 10 كم
غيوم متفرقة على ارتفاع 25000 قدم

TAF: MMMX 121142Z 1212/1318 03005KT 4SM HZ BKN250 TX21/1221Z TN07/1212Z FM121900 22015KT P6SM BKN250 FM130200 23008KT P6SM BKN250 FM131600 23010KT P6SM SCT250

أرصاد الطقس والتوقعات من أكثر من 4000 مطار (تقارير الطقس للمطار METAR والتنبؤ بالطقس بالمطارTAF).

المحطات المتاحة هي النقط الصفراء والحمراء على الخريطة.

حرك المؤشر فوق النقطة لمعرفة اسم المحطة.

ثم انقر لمعرفة أرصاد وتوقعات الطقس.

لتغيير الخارطة: اضغط على الأزرار الخضراء مع رمز الصليب الأسود للتكبير. على الزر الأخضر مع شرطة للتصغير، أو على الأسهم الخضراء للخرائط المجاورة.


METAR-TAF: